Aviation Digital Data Service (ADDS)

Output produced by TAFs form (1913 UTC 21 April 2018)
found at http://aviationweather.gov/adds/tafs/
 
Forecast for: RJCB (OBIHIRO AIRPORT , JP)
Text: TAF RJCB 211707Z 2118/2300 34006KT 9999 FEW050
Forecast period: 1800 UTC 21 April 2018 to 0300 UTC 22 April 2018
Forecast type: FROM: standard forecast or significant change
Winds: from the NNW (340 degrees) at 7 MPH (6 knots; 3.1 m/s)
Visibility: 6 or more miles (10+ km)
Clouds: few clouds at 5000 feet AGL
Weather: no significant weather forecast for this period
Forecast for: RJCB (OBIHIRO AIRPORT , JP)
Text: TAF RJCB 211707Z 2118/2300 34006KT 9999 FEW050
Forecast period: 1800 UTC 21 April 2018 to 0300 UTC 22 April 2018
Forecast type: FROM: standard forecast or significant change
Winds: from the NNW (340 degrees) at 7 MPH (6 knots; 3.1 m/s)
Visibility: 6 or more miles (10+ km)
Clouds: few clouds at 5000 feet AGL
Weather: no significant weather forecast for this period
Forecast for: RJCB (OBIHIRO AIRPORT , JP)
Text: TAF RJCB 211707Z 2118/2300 34006KT 9999 FEW050
Forecast period: 0300 UTC 22 April 2018 to 0000 UTC 23 April 2018
Forecast type: BECOMING: Conditions expected to become as follows by 0500 UTC 22 April 2018
Winds: from the SSE (150 degrees) at 14 MPH (12 knots; 6.2 m/s)
Visibility: 6 or more miles (10+ km)
Clouds: few clouds at 5000 feet AGL
Weather: no significant weather forecast for this period
Forecast for: RJCB (OBIHIRO AIRPORT , JP)
Text: TAF RJCB 211707Z 2118/2300 34006KT 9999 FEW050
Forecast period: 0300 UTC 22 April 2018 to 0000 UTC 23 April 2018
Forecast type: BECOMING: Conditions expected to become as follows by 0500 UTC 22 April 2018
Winds: from the SSE (150 degrees) at 14 MPH (12 knots; 6.2 m/s)
Visibility: 6 or more miles (10+ km)
Clouds: few clouds at 5000 feet AGL
Weather: no significant weather forecast for this period
Forecast for: RJCB (OBIHIRO AIRPORT , JP)
Text: TAF RJCB 211707Z 2118/2300 34006KT 9999 FEW050
Forecast period: 0900 to 1500 UTC 22 April 2018
Forecast type: TEMPORARY: The following changes expected for less than half the time period
Ceiling: 500 feet AGL
Clouds: few clouds at 200 feet AGL
broken clouds at 500 feet AGL
Weather: no significant weather forecast for this period
Forecast for: RJCB (OBIHIRO AIRPORT , JP)
Text: TAF RJCB 211707Z 2118/2300 34006KT 9999 FEW050
Forecast period: 0900 to 1500 UTC 22 April 2018
Forecast type: TEMPORARY: The following changes expected for less than half the time period
Ceiling: 500 feet AGL
Clouds: few clouds at 200 feet AGL
broken clouds at 500 feet AGL
Weather: no significant weather forecast for this period
Forecast for: RJCB (OBIHIRO AIRPORT , JP)
Text: TAF RJCB 211707Z 2118/2300 34006KT 9999 FEW050
Forecast period: 1500 to 2100 UTC 22 April 2018
Forecast type: TEMPORARY: The following changes expected for less than half the time period
Visibility: 0.93 miles (1.50 km)
Ceiling: 300 feet AGL
Clouds: few clouds at 100 feet AGL
broken clouds at 300 feet AGL
Weather: BR  (mist)
Forecast for: RJCB (OBIHIRO AIRPORT , JP)
Text: TAF RJCB 211707Z 2118/2300 34006KT 9999 FEW050
Forecast period: 1500 to 2100 UTC 22 April 2018
Forecast type: TEMPORARY: The following changes expected for less than half the time period
Visibility: 0.93 miles (1.50 km)
Ceiling: 300 feet AGL
Clouds: few clouds at 100 feet AGL
broken clouds at 300 feet AGL
Weather: BR  (mist)
Forecast for: RJCB (OBIHIRO AIRPORT , JP)
Text: TAF RJCB 211707Z 2118/2300 34006KT 9999 FEW050
Forecast period: 2100 UTC 22 April 2018 to 0000 UTC 23 April 2018
Forecast type: TEMPORARY: The following changes expected for less than half the time period
Visibility: 1.86 miles (2.99 km)
Ceiling: 600 feet AGL
Clouds: few clouds at 300 feet AGL
broken clouds at 600 feet AGL
Weather: BR  (mist)
Forecast for: RJCB (OBIHIRO AIRPORT , JP)
Text: TAF RJCB 211707Z 2118/2300 34006KT 9999 FEW050
Forecast period: 2100 UTC 22 April 2018 to 0000 UTC 23 April 2018
Forecast type: TEMPORARY: The following changes expected for less than half the time period
Visibility: 1.86 miles (2.99 km)
Ceiling: 600 feet AGL
Clouds: few clouds at 300 feet AGL
broken clouds at 600 feet AGL
Weather: BR  (mist)